sensor_id;sensor_type;location;lat;lon;timestamp;pressure;altitude;pressure_sealevel;temperature;humidity
22862;BME280;11598;50.652;6.172;2022-09-09T00:36:00;95805.28;;;11.17;100.00
22862;BME280;11598;50.652;6.172;2022-09-09T00:56:29;95799.97;;;11.38;100.00
22862;BME280;11598;50.652;6.172;2022-09-09T01:06:37;95812.97;;;11.48;100.00
22862;BME280;11598;50.652;6.172;2022-09-09T01:16:38;95813.69;;;11.60;100.00
22862;BME280;11598;50.652;6.172;2022-09-09T01:26:43;95812.69;;;11.80;100.00
22862;BME280;11598;50.652;6.172;2022-09-09T01:36:52;95804.38;;;11.96;100.00
22862;BME280;11598;50.652;6.172;2022-09-09T01:46:55;95802.31;;;12.10;100.00
22862;BME280;11598;50.652;6.172;2022-09-09T02:07:38;95796.38;;;12.27;100.00
22862;BME280;11598;50.652;6.172;2022-09-09T02:17:40;95795.25;;;12.39;100.00
22862;BME280;11598;50.652;6.172;2022-09-09T02:27:43;95780.44;;;12.40;100.00
22862;BME280;11598;50.652;6.172;2022-09-09T02:37:45;95785.28;;;12.35;100.00
22862;BME280;11598;50.652;6.172;2022-09-09T02:58:06;95775.00;;;12.23;100.00
22862;BME280;11598;50.652;6.172;2022-09-09T03:08:08;95780.66;;;12.19;100.00
22862;BME280;11598;50.652;6.172;2022-09-09T03:18:09;95768.72;;;12.16;100.00
22862;BME280;11598;50.652;6.172;2022-09-09T03:28:09;95781.47;;;12.10;100.00
22862;BME280;11598;50.652;6.172;2022-09-09T03:38:11;95774.38;;;12.02;100.00
22862;BME280;11598;50.652;6.172;2022-09-09T03:48:11;95765.16;;;12.08;100.00
22862;BME280;11598;50.652;6.172;2022-09-09T03:58:13;95762.00;;;12.04;100.00
22862;BME280;11598;50.652;6.172;2022-09-09T04:08:14;95753.56;;;12.02;100.00
22862;BME280;11598;50.652;6.172;2022-09-09T04:18:14;95756.41;;;11.99;100.00
22862;BME280;11598;50.652;6.172;2022-09-09T04:28:16;95753.13;;;12.07;100.00
22862;BME280;11598;50.652;6.172;2022-09-09T04:38:17;95754.34;;;12.12;100.00
22862;BME280;11598;50.652;6.172;2022-09-09T04:48:18;95768.75;;;12.07;100.00
22862;BME280;11598;50.652;6.172;2022-09-09T04:58:19;95773.13;;;11.96;100.00
22862;BME280;11598;50.652;6.172;2022-09-09T05:08:21;95768.63;;;11.89;100.00
22862;BME280;11598;50.652;6.172;2022-09-09T05:18:22;95769.31;;;11.81;100.00
22862;BME280;11598;50.652;6.172;2022-09-09T05:28:24;95767.53;;;11.72;100.00
22862;BME280;11598;50.652;6.172;2022-09-09T05:38:25;95773.66;;;11.71;100.00
22862;BME280;11598;50.652;6.172;2022-09-09T05:48:31;95778.75;;;11.82;100.00
22862;BME280;11598;50.652;6.172;2022-09-09T05:58:33;95766.00;;;12.08;100.00
22862;BME280;11598;50.652;6.172;2022-09-09T06:08:35;95760.69;;;12.47;100.00
22862;BME280;11598;50.652;6.172;2022-09-09T06:18:39;95759.44;;;12.41;100.00
22862;BME280;11598;50.652;6.172;2022-09-09T06:28:40;95754.91;;;12.43;100.00
22862;BME280;11598;50.652;6.172;2022-09-09T06:38:42;95748.13;;;12.88;100.00
22862;BME280;11598;50.652;6.172;2022-09-09T06:48:43;95737.03;;;13.49;100.00
22862;BME280;11598;50.652;6.172;2022-09-09T06:58:47;95737.31;;;14.08;98.66
22862;BME280;11598;50.652;6.172;2022-09-09T07:08:53;95739.47;;;14.65;96.35
22862;BME280;11598;50.652;6.172;2022-09-09T07:18:55;95754.59;;;14.53;93.54
22862;BME280;11598;50.652;6.172;2022-09-09T07:28:58;95761.00;;;14.93;91.39
22862;BME280;11598;50.652;6.172;2022-09-09T07:39:10;95775.16;;;15.25;86.61
22862;BME280;11598;50.652;6.172;2022-09-09T07:49:13;95772.00;;;14.71;87.26
22862;BME280;11598;50.652;6.172;2022-09-09T07:59:14;95775.84;;;14.93;85.98
22862;BME280;11598;50.652;6.172;2022-09-09T08:09:15;95792.19;;;15.37;84.90
22862;BME280;11598;50.652;6.172;2022-09-09T08:19:16;95783.22;;;15.56;83.11
22862;BME280;11598;50.652;6.172;2022-09-09T08:29:17;95804.50;;;15.53;81.91
22862;BME280;11598;50.652;6.172;2022-09-09T08:39:19;95807.91;;;15.54;80.79
22862;BME280;11598;50.652;6.172;2022-09-09T08:59:29;95817.72;;;15.43;82.05
22862;BME280;11598;50.652;6.172;2022-09-09T09:10:25;95810.28;;;15.90;81.15
22862;BME280;11598;50.652;6.172;2022-09-09T09:20:02;95828.78;;;16.45;77.88
22862;BME280;11598;50.652;6.172;2022-09-09T09:30:18;95822.25;;;15.92;79.79
22862;BME280;11598;50.652;6.172;2022-09-09T09:40:21;95810.13;;;15.75;82.42
22862;BME280;11598;50.652;6.172;2022-09-09T09:50:22;95801.94;;;16.02;80.18
22862;BME280;11598;50.652;6.172;2022-09-09T10:00:25;95813.81;;;16.62;76.14
22862;BME280;11598;50.652;6.172;2022-09-09T10:10:34;95822.38;;;17.20;73.67
22862;BME280;11598;50.652;6.172;2022-09-09T10:20:51;95826.06;;;16.95;71.80
22862;BME280;11598;50.652;6.172;2022-09-09T11:02:06;95819.44;;;17.46;70.35
22862;BME280;11598;50.652;6.172;2022-09-09T11:12:17;95801.19;;;17.53;70.51
22862;BME280;11598;50.652;6.172;2022-09-09T11:22:37;95810.34;;;17.88;69.70
22862;BME280;11598;50.652;6.172;2022-09-09T11:43:16;95851.59;;;16.04;79.57
22862;BME280;11598;50.652;6.172;2022-09-09T11:53:20;95850.91;;;15.35;84.00
22862;BME280;11598;50.652;6.172;2022-09-09T12:03:48;95833.91;;;15.39;86.65
22862;BME280;11598;50.652;6.172;2022-09-09T12:13:58;95826.66;;;15.92;86.96
22862;BME280;11598;50.652;6.172;2022-09-09T12:24:08;95820.44;;;16.42;85.11
22862;BME280;11598;50.652;6.172;2022-09-09T12:34:13;95822.84;;;16.60;82.67
22862;BME280;11598;50.652;6.172;2022-09-09T12:44:15;95810.97;;;16.97;77.77
22862;BME280;11598;50.652;6.172;2022-09-09T12:54:15;95808.56;;;16.87;77.02
22862;BME280;11598;50.652;6.172;2022-09-09T13:04:20;95817.03;;;16.97;77.15
22862;BME280;11598;50.652;6.172;2022-09-09T13:14:29;95817.44;;;16.53;79.01
22862;BME280;11598;50.652;6.172;2022-09-09T13:24:34;95827.41;;;15.00;86.26
22862;BME280;11598;50.652;6.172;2022-09-09T13:34:35;95808.59;;;14.45;92.32
22862;BME280;11598;50.652;6.172;2022-09-09T13:44:38;95798.75;;;14.56;95.95
22862;BME280;11598;50.652;6.172;2022-09-09T13:54:40;95790.97;;;14.73;97.40
22862;BME280;11598;50.652;6.172;2022-09-09T14:04:40;95810.22;;;14.64;97.91
22862;BME280;11598;50.652;6.172;2022-09-09T14:14:41;95817.22;;;14.37;99.78
22862;BME280;11598;50.652;6.172;2022-09-09T14:24:44;95818.59;;;14.49;100.00
22862;BME280;11598;50.652;6.172;2022-09-09T14:34:44;95838.25;;;14.35;100.00
22862;BME280;11598;50.652;6.172;2022-09-09T14:44:45;95847.19;;;14.07;100.00
22862;BME280;11598;50.652;6.172;2022-09-09T14:54:45;95830.88;;;13.69;100.00
22862;BME280;11598;50.652;6.172;2022-09-09T15:04:45;95826.97;;;13.55;100.00
22862;BME280;11598;50.652;6.172;2022-09-09T15:14:46;95820.44;;;13.69;100.00
22862;BME280;11598;50.652;6.172;2022-09-09T15:24:47;95828.16;;;13.96;100.00
22862;BME280;11598;50.652;6.172;2022-09-09T15:34:47;95819.59;;;14.04;100.00
22862;BME280;11598;50.652;6.172;2022-09-09T15:44:51;95819.94;;;14.09;100.00
22862;BME280;11598;50.652;6.172;2022-09-09T15:54:51;95833.09;;;14.00;100.00
22862;BME280;11598;50.652;6.172;2022-09-09T16:04:52;95826.75;;;13.84;100.00
22862;BME280;11598;50.652;6.172;2022-09-09T16:14:52;95824.59;;;13.62;100.00
22862;BME280;11598;50.652;6.172;2022-09-09T16:24:52;95812.66;;;13.41;100.00
22862;BME280;11598;50.652;6.172;2022-09-09T16:34:53;95807.19;;;13.35;100.00
22862;BME280;11598;50.652;6.172;2022-09-09T16:44:53;95825.16;;;13.38;100.00
22862;BME280;11598;50.652;6.172;2022-09-09T16:54:53;95850.97;;;13.41;100.00
22862;BME280;11598;50.652;6.172;2022-09-09T17:04:54;95866.22;;;13.36;100.00
22862;BME280;11598;50.652;6.172;2022-09-09T17:14:55;95881.50;;;13.30;100.00
22862;BME280;11598;50.652;6.172;2022-09-09T17:24:56;95909.91;;;13.24;100.00
22862;BME280;11598;50.652;6.172;2022-09-09T17:34:56;95910.94;;;13.13;100.00
22862;BME280;11598;50.652;6.172;2022-09-09T17:44:56;95910.72;;;12.97;100.00
22862;BME280;11598;50.652;6.172;2022-09-09T17:54:57;95908.13;;;12.87;100.00
22862;BME280;11598;50.652;6.172;2022-09-09T18:04:58;95914.50;;;12.75;100.00
22862;BME280;11598;50.652;6.172;2022-09-09T18:14:58;95910.53;;;12.61;100.00
22862;BME280;11598;50.652;6.172;2022-09-09T18:24:59;95913.69;;;12.55;100.00
22862;BME280;11598;50.652;6.172;2022-09-09T18:35:00;95924.13;;;12.45;100.00
22862;BME280;11598;50.652;6.172;2022-09-09T18:45:00;95936.47;;;12.43;100.00
22862;BME280;11598;50.652;6.172;2022-09-09T18:55:00;95944.00;;;12.36;100.00
22862;BME280;11598;50.652;6.172;2022-09-09T19:05:01;95937.84;;;12.37;100.00
22862;BME280;11598;50.652;6.172;2022-09-09T19:15:03;95946.59;;;12.36;100.00
22862;BME280;11598;50.652;6.172;2022-09-09T19:25:04;95951.00;;;12.36;100.00
22862;BME280;11598;50.652;6.172;2022-09-09T19:35:06;95972.81;;;12.35;100.00
22862;BME280;11598;50.652;6.172;2022-09-09T19:45:07;95984.59;;;12.29;100.00
22862;BME280;11598;50.652;6.172;2022-09-09T19:55:09;95992.41;;;12.19;100.00
22862;BME280;11598;50.652;6.172;2022-09-09T20:05:10;96005.94;;;12.13;100.00
22862;BME280;11598;50.652;6.172;2022-09-09T20:25:15;96012.13;;;12.22;100.00
22862;BME280;11598;50.652;6.172;2022-09-09T20:35:16;96009.41;;;12.14;100.00
22862;BME280;11598;50.652;6.172;2022-09-09T20:45:16;96002.22;;;12.06;100.00
22862;BME280;11598;50.652;6.172;2022-09-09T20:55:17;95988.78;;;11.91;100.00
22862;BME280;11598;50.652;6.172;2022-09-09T21:05:17;95981.75;;;11.82;100.00
22862;BME280;11598;50.652;6.172;2022-09-09T21:15:18;95986.19;;;11.91;100.00
22862;BME280;11598;50.652;6.172;2022-09-09T21:25:19;95994.97;;;12.00;100.00
22862;BME280;11598;50.652;6.172;2022-09-09T21:35:45;96002.81;;;12.10;100.00
22862;BME280;11598;50.652;6.172;2022-09-09T21:45:46;95994.41;;;12.06;100.00
22862;BME280;11598;50.652;6.172;2022-09-09T21:55:47;96003.59;;;11.91;100.00
22862;BME280;11598;50.652;6.172;2022-09-09T22:05:48;96000.91;;;11.71;100.00
22862;BME280;11598;50.652;6.172;2022-09-09T22:15:48;95995.81;;;11.60;100.00
22862;BME280;11598;50.652;6.172;2022-09-09T22:25:49;95986.47;;;11.57;100.00
22862;BME280;11598;50.652;6.172;2022-09-09T22:35:50;95974.81;;;11.52;100.00
22862;BME280;11598;50.652;6.172;2022-09-09T22:45:51;95971.78;;;11.47;100.00
22862;BME280;11598;50.652;6.172;2022-09-09T22:55:56;95980.72;;;11.54;100.00
22862;BME280;11598;50.652;6.172;2022-09-09T23:06:00;95980.97;;;11.51;100.00
22862;BME280;11598;50.652;6.172;2022-09-09T23:16:10;95983.44;;;11.52;100.00
22862;BME280;11598;50.652;6.172;2022-09-09T23:26:14;95985.78;;;11.55;100.00
22862;BME280;11598;50.652;6.172;2022-09-09T23:36:22;95982.09;;;11.58;100.00
22862;BME280;11598;50.652;6.172;2022-09-09T23:46:25;95982.78;;;11.60;100.00
22862;BME280;11598;50.652;6.172;2022-09-09T23:56:36;95989.50;;;11.62;100.00
